Time;durP1;ratioP1;P1;durP2;ratioP2;P2;SDS_P1;SDS_P2;PMS_P1;PMS_P2;Temp;Humidity;BMP_temperature;BMP_pressure;BME280_temperature;BME280_humidity;BME280_pressure;Samples;Min_cycle;Max_cycle;Signal;HPM_P1;HPM_P2
2022/08/09 00:01:49;;;;;;;;;;;;;;;25.94;53.85;99974.69;5072898;28;19916;-75
2022/08/09 00:04:16;;;;;;;;;;;;;;;25.89;54.01;99981.84;5072998;28;19916;-75
2022/08/09 00:06:41;;;;;;;;;;;;;;;25.97;53.55;99971.69;5074830;28;19916;-76
2022/08/09 00:09:07;;;;;;;;;;;;;;;25.90;53.74;99968.38;5073074;28;20331;-75
2022/08/09 00:11:32;;;;;;;;;;;;;;;26.05;53.31;99978.69;5074196;28;19948;-76
2022/08/09 00:14:00;;;;;;;;;;;;;;;25.92;54.06;99974.38;5072858;28;19917;-76
2022/08/09 00:16:35;;;;;;;;;;;;;;;26.02;54.04;99978.81;5072278;28;20256;-75
2022/08/09 00:19:00;;;;;;;;;;;;;;;25.91;54.24;99976.44;5074183;28;19920;-75
2022/08/09 00:21:26;;;;;;;;;;;;;;;25.93;54.12;99973.91;5072999;28;19939;-75
2022/08/09 00:23:51;;;;;;;;;;;;;;;25.88;54.50;99974.53;5072829;28;20421;-75
2022/08/09 00:26:19;;;;;;;;;;;;;;;25.89;54.58;99981.84;5074930;28;19917;-74
2022/08/09 00:28:47;;;;;;;;;;;;;;;25.91;54.53;99985.00;5072678;28;19951;-74
2022/08/09 00:31:12;;;;;;;;;;;;;;;25.95;54.68;99982.78;5072688;28;19920;-75
2022/08/09 00:33:38;;;;;;;;;;;;;;;25.91;54.62;99981.34;5072676;28;19966;-74
2022/08/09 00:36:06;;;;;;;;;;;;;;;25.86;55.19;99980.72;5072597;28;19952;-74
2022/08/09 00:38:34;;;;;;;;;;;;;;;25.78;55.31;99985.16;5073148;28;19940;-76
2022/08/09 00:41:00;;;;;;;;;;;;;;;25.78;55.45;99981.47;5072590;28;20049;-75
2022/08/09 00:43:30;;;;;;;;;;;;;;;25.77;55.41;99992.09;5072754;28;19916;-76
2022/08/09 00:45:57;;;;;;;;;;;;;;;25.75;55.79;99988.16;5072684;28;19920;-76
2022/08/09 00:48:23;;;;;;;;;;;;;;;25.75;55.60;99988.94;5071893;28;19920;-75
2022/08/09 00:50:48;;;;;;;;;;;;;;;25.72;55.67;99983.34;5073010;28;19923;-75
2022/08/09 00:53:16;;;;;;;;;;;;;;;25.76;55.16;99984.81;5072433;28;19966;-75
2022/08/09 00:55:42;;;;;;;;;;;;;;;25.79;55.65;99975.34;5072430;28;20378;-76
2022/08/09 00:58:13;;;;;;;;;;;;;;;25.68;55.97;99985.56;5072581;28;19923;-74
2022/08/09 01:00:39;;;;;;;;;;;;;;;25.67;55.55;99981.91;5072695;28;19938;-76
2022/08/09 01:03:29;;;;;;;;;;;;;;;25.71;55.68;99976.06;5072186;28;19930;-75
2022/08/09 01:06:03;;;;;;;;;;;;;;;25.61;55.77;99978.88;5072545;28;19986;-75
2022/08/09 01:08:47;;;;;;;;;;;;;;;25.61;55.76;99972.41;5072299;28;19927;-75
2022/08/09 01:11:32;;;;;;;;;;;;;;;25.68;55.56;99971.34;5072260;28;19967;-74
2022/08/09 01:14:12;;;;;;;;;;;;;;;25.56;55.93;99970.19;5071007;28;20450;-75
2022/08/09 01:16:44;;;;;;;;;;;;;;;25.51;55.98;99971.59;5073187;28;19917;-75
2022/08/09 01:19:28;;;;;;;;;;;;;;;25.58;55.82;99970.50;5073807;28;19952;-74
2022/08/09 01:21:56;;;;;;;;;;;;;;;25.59;56.03;99969.25;5073905;28;19917;-75
2022/08/09 01:24:45;;;;;;;;;;;;;;;25.55;56.09;99968.59;5073457;28;19917;-76
2022/08/09 01:27:11;;;;;;;;;;;;;;;25.49;56.08;99967.63;5070681;28;20003;-75
2022/08/09 01:29:43;;;;;;;;;;;;;;;25.55;56.02;99968.59;5055840;28;19928;-75
2022/08/09 01:32:10;;;;;;;;;;;;;;;25.47;56.11;99961.63;5073415;28;19960;-74
2022/08/09 01:34:37;;;;;;;;;;;;;;;25.54;55.99;99964.97;5055555;28;20329;-76
2022/08/09 01:37:07;;;;;;;;;;;;;;;25.53;56.01;99966.22;5072581;28;19923;-76
2022/08/09 01:39:38;;;;;;;;;;;;;;;25.49;56.38;99968.44;5072923;28;19920;-75
2022/08/09 01:42:06;;;;;;;;;;;;;;;25.42;56.41;99968.72;5073287;28;20018;-74
2022/08/09 01:44:32;;;;;;;;;;;;;;;25.31;57.18;99963.47;5072313;28;19916;-76
2022/08/09 01:47:03;;;;;;;;;;;;;;;25.23;57.38;99958.53;5072653;28;19923;-76
2022/08/09 01:49:33;;;;;;;;;;;;;;;25.25;57.74;99956.81;5071881;28;19923;-75
2022/08/09 01:52:04;;;;;;;;;;;;;;;25.28;57.64;99966.47;5073999;28;19921;-74
2022/08/09 01:54:38;;;;;;;;;;;;;;;25.24;57.88;99963.75;5071882;28;19923;-75
2022/08/09 01:57:06;;;;;;;;;;;;;;;25.33;57.49;99963.78;5072100;28;19916;-75
2022/08/09 01:59:32;;;;;;;;;;;;;;;25.29;58.10;99963.13;5075208;28;20275;-75
2022/08/09 02:02:01;;;;;;;;;;;;;;;25.29;57.71;99963.13;5075544;28;19917;-76
2022/08/09 02:04:28;;;;;;;;;;;;;;;25.23;58.21;99959.31;5075898;28;20329;-75
2022/08/09 02:07:07;;;;;;;;;;;;;;;25.26;57.71;99957.63;5075824;28;20271;-75
2022/08/09 02:09:34;;;;;;;;;;;;;;;25.21;58.35;99958.22;5075500;28;20341;-76
2022/08/09 02:12:03;;;;;;;;;;;;;;;25.36;57.67;99962.06;5075432;28;20343;-75
2022/08/09 02:14:32;;;;;;;;;;;;;;;25.23;57.96;99959.31;5075452;28;20313;-76
2022/08/09 02:16:58;;;;;;;;;;;;;;;25.26;58.20;99957.63;5075137;28;19916;-74
2022/08/09 02:19:23;;;;;;;;;;;;;;;25.33;57.94;99963.78;5058529;28;19956;-75
2022/08/09 02:21:56;;;;;;;;;;;;;;;25.28;57.67;99967.25;5074957;28;20255;-74
2022/08/09 02:24:24;;;;;;;;;;;;;;;25.20;57.99;99965.19;5074996;28;20031;-75
2022/08/09 02:26:51;;;;;;;;;;;;;;;25.13;58.15;99971.16;5076742;28;19920;-75
2022/08/09 02:29:23;;;;;;;;;;;;;;;25.13;58.26;99966.25;5075406;28;19982;-75
2022/08/09 02:31:52;;;;;;;;;;;;;;;25.06;58.47;99972.22;5075286;28;20271;-77
2022/08/09 02:34:19;;;;;;;;;;;;;;;25.02;58.28;99966.66;5075301;28;19917;-76
2022/08/09 02:36:48;;;;;;;;;;;;;;;24.98;58.63;99968.88;5074982;28;19916;-77
2022/08/09 02:39:18;;;;;;;;;;;;;;;25.01;58.35;99970.75;5076505;28;19921;-76
2022/08/09 02:41:47;;;;;;;;;;;;;;;24.97;58.70;99967.25;5075969;28;19928;-76
2022/08/09 02:44:17;;;;;;;;;;;;;;;25.08;58.58;99970.50;5074543;28;19917;-75
2022/08/09 02:46:47;;;;;;;;;;;;;;;25.00;58.56;99977.72;5074507;28;19917;-76
2022/08/09 02:49:14;;;;;;;;;;;;;;;25.00;58.55;99969.19;5074716;28;19920;-76
2022/08/09 02:51:41;;;;;;;;;;;;;;;25.16;58.33;99967.38;5074279;28;19923;-74
2022/08/09 02:54:09;;;;;;;;;;;;;;;25.12;58.34;99969.56;5074284;28;20065;-74
2022/08/09 02:56:34;;;;;;;;;;;;;;;25.04;58.34;99969.84;5074334;28;19924;-76
2022/08/09 02:59:04;;;;;;;;;;;;;;;25.06;58.59;99964.47;5074769;28;19916;-74
2022/08/09 03:01:33;;;;;;;;;;;;;;;25.16;58.34;99958.84;5073951;28;19917;-75
2022/08/09 03:04:02;;;;;;;;;;;;;;;25.14;58.31;99964.19;5076019;28;20318;-74
2022/08/09 03:06:28;;;;;;;;;;;;;;;25.14;58.37;99967.03;5074085;28;19956;-75
2022/08/09 03:08:54;;;;;;;;;;;;;;;25.01;58.83;99965.06;5074226;28;19975;-75
2022/08/09 03:11:20;;;;;;;;;;;;;;;24.98;58.83;99960.31;5073772;28;19993;-74
2022/08/09 03:13:47;;;;;;;;;;;;;;;25.10;58.19;99969.25;5074307;28;19955;-74
2022/08/09 03:16:13;;;;;;;;;;;;;;;25.03;58.58;99961.75;5074024;28;20391;-76
2022/08/09 03:18:42;;;;;;;;;;;;;;;25.13;58.35;99966.25;5073826;28;19923;-75
2022/08/09 03:21:08;;;;;;;;;;;;;;;25.13;58.17;99965.47;5074036;28;20355;-75
2022/08/09 03:23:33;;;;;;;;;;;;;;;25.07;58.44;99973.81;5073847;28;20283;-76
2022/08/09 03:26:02;;;;;;;;;;;;;;;25.15;58.21;99971.50;5073659;28;19916;-76
2022/08/09 03:28:30;;;;;;;;;;;;;;;25.04;58.51;99975.53;5075015;28;19917;-75
2022/08/09 03:30:56;;;;;;;;;;;;;;;24.94;58.52;99967.41;5075026;28;19980;-75
2022/08/09 03:33:28;;;;;;;;;;;;;;;24.97;58.31;99963.63;5075013;28;19995;-75
2022/08/09 03:35:53;;;;;;;;;;;;;;;24.93;58.93;99963.78;5074605;28;19920;-75
2022/08/09 03:38:18;;;;;;;;;;;;;;;25.01;58.73;99969.97;5074005;28;19923;-75
2022/08/09 03:40:44;;;;;;;;;;;;;;;25.05;58.12;99970.63;5073455;28;20256;-76
2022/08/09 03:43:09;;;;;;;;;;;;;;;25.08;58.21;99970.50;5073284;28;19960;-76
2022/08/09 03:45:35;;;;;;;;;;;;;;;25.13;58.02;99971.16;5073585;28;19917;-76
2022/08/09 03:48:03;;;;;;;;;;;;;;;25.07;57.89;99968.13;5074127;28;19916;-75
2022/08/09 03:50:30;;;;;;;;;;;;;;;24.96;58.21;99968.50;5073255;28;19954;-75
2022/08/09 03:52:56;;;;;;;;;;;;;;;24.90;58.86;99976.09;5073230;28;19920;-76
2022/08/09 03:55:22;;;;;;;;;;;;;;;24.94;58.38;99976.75;5074734;28;20363;-75
2022/08/09 03:57:49;;;;;;;;;;;;;;;24.93;58.59;99977.19;5074994;28;19916;-75
2022/08/09 04:00:17;;;;;;;;;;;;;;;24.91;58.25;99982.56;5073151;28;19923;-75
2022/08/09 04:02:43;;;;;;;;;;;;;;;24.84;58.90;99977.94;5074342;28;20016;-75
2022/08/09 04:05:09;;;;;;;;;;;;;;;24.89;58.69;99979.41;5073059;28;19923;-76
2022/08/09 04:07:35;;;;;;;;;;;;;;;24.75;58.86;99981.53;5072982;28;20019;-76
2022/08/09 04:10:03;;;;;;;;;;;;;;;24.69;59.17;99976.91;5072545;28;19963;-75
2022/08/09 04:12:40;;;;;;;;;;;;;;;24.69;59.23;99976.91;5072894;28;20058;-76
2022/08/09 04:15:06;;;;;;;;;;;;;;;24.70;59.16;99981.34;5073623;28;19939;-76
2022/08/09 04:17:34;;;;;;;;;;;;;;;24.68;59.54;99981.03;5073093;28;19962;-75
2022/08/09 04:20:00;;;;;;;;;;;;;;;24.65;59.70;99981.94;5072805;28;19916;-76
2022/08/09 04:22:25;;;;;;;;;;;;;;;24.76;59.22;99980.25;5072681;28;20061;-76
2022/08/09 04:24:50;;;;;;;;;;;;;;;24.74;59.15;99988.47;5072755;28;19948;-75
2022/08/09 04:27:16;;;;;;;;;;;;;;;24.80;59.13;99988.66;5072688;28;19916;-75
2022/08/09 04:29:41;;;;;;;;;;;;;;;24.77;59.11;99983.94;5072917;28;20028;-76
2022/08/09 04:32:10;;;;;;;;;;;;;;;24.93;58.30;99980.84;5072865;28;19923;-76
2022/08/09 04:34:37;;;;;;;;;;;;;;;24.91;58.73;99988.25;5072577;28;20363;-75
2022/08/09 04:37:03;;;;;;;;;;;;;;;24.97;58.69;99987.19;5072849;28;19921;-75
2022/08/09 04:39:32;;;;;;;;;;;;;;;25.16;57.98;99996.63;5072519;28;20014;-74
2022/08/09 04:42:03;;;;;;;;;;;;;;;25.69;56.60;99995.69;5073762;28;19923;-75
2022/08/09 04:44:28;;;;;;;;;;;;;;;26.13;54.81;99997.03;5073045;28;19916;-75
2022/08/09 04:46:56;;;;;;;;;;;;;;;26.58;53.91;99986.91;5072471;28;20307;-76
2022/08/09 04:49:21;;;;;;;;;;;;;;;27.00;52.22;99994.72;5073178;28;20264;-76
2022/08/09 04:51:50;;;;;;;;;;;;;;;27.38;51.07;99990.50;5072962;28;20003;-76
2022/08/09 04:54:15;;;;;;;;;;;;;;;27.77;50.00;99999.19;5072465;28;19966;-76
2022/08/09 04:56:40;;;;;;;;;;;;;;;28.11;49.06;99998.59;5072702;28;19920;-76
2022/08/09 04:59:06;;;;;;;;;;;;;;;28.43;48.13;100010.44;5072335;28;19939;-76
2022/08/09 05:01:31;;;;;;;;;;;;;;;28.78;47.29;100004.09;5072593;28;20023;-76
2022/08/09 05:03:56;;;;;;;;;;;;;;;29.00;46.51;100006.59;5073528;28;19917;-76
2022/08/09 05:06:22;;;;;;;;;;;;;;;29.30;45.92;100007.34;5072301;28;20286;-75
2022/08/09 05:08:47;;;;;;;;;;;;;;;29.53;45.60;100008.47;5073417;28;20058;-76
2022/08/09 05:11:12;;;;;;;;;;;;;;;29.72;45.24;100009.81;5072229;28;19924;-75
2022/08/09 05:13:39;;;;;;;;;;;;;;;30.23;44.23;100014.94;5072679;28;19917;-75
2022/08/09 05:16:08;;;;;;;;;;;;;;;30.33;43.27;100009.06;5072491;28;19916;-75
2022/08/09 05:18:34;;;;;;;;;;;;;;;30.72;43.42;100016.03;5072468;28;19920;-76
2022/08/09 05:20:59;;;;;;;;;;;;;;;31.18;42.19;100012.28;5072809;28;19939;-76
2022/08/09 05:23:30;;;;;;;;;;;;;;;31.25;41.92;100008.97;5072280;28;19920;-75
2022/08/09 05:25:56;;;;;;;;;;;;;;;31.27;41.53;100008.47;5072118;28;19974;-76
2022/08/09 05:28:24;;;;;;;;;;;;;;;31.73;40.62;100004.56;5072361;28;19921;-75
2022/08/09 05:30:49;;;;;;;;;;;;;;;31.99;40.19;100013.09;5072883;28;19939;-76
2022/08/09 05:33:15;;;;;;;;;;;;;;;32.14;39.92;100018.66;5073079;28;20367;-75
2022/08/09 05:35:40;;;;;;;;;;;;;;;32.40;39.49;100019.31;5076178;28;20007;-76
2022/08/09 05:38:05;;;;;;;;;;;;;;;32.71;38.73;100029.88;5075555;28;19924;-76
2022/08/09 05:40:33;;;;;;;;;;;;;;;32.74;38.32;100028.81;5076371;28;19982;-76
2022/08/09 05:43:01;;;;;;;;;;;;;;;32.63;38.34;100030.91;5076258;28;19916;-75
2022/08/09 05:45:28;;;;;;;;;;;;;;;32.37;38.81;100028.19;5075386;28;19917;-76
2022/08/09 05:47:56;;;;;;;;;;;;;;;32.94;38.15;100030.72;5075899;28;19920;-76
2022/08/09 05:50:24;;;;;;;;;;;;;;;33.23;37.82;100035.16;5077264;28;19923;-76
2022/08/09 05:52:52;;;;;;;;;;;;;;;32.64;37.81;100035.34;5077502;28;19917;-76
2022/08/09 05:55:17;;;;;;;;;;;;;;;33.00;37.62;100045.13;5075450;28;19920;-75
2022/08/09 05:57:43;;;;;;;;;;;;;;;33.30;37.13;100043.31;5075698;28;19967;-76
2022/08/09 06:00:08;;;;;;;;;;;;;;;33.84;35.80;100042.22;5076278;28;20351;-76
2022/08/09 06:02:34;;;;;;;;;;;;;;;34.20;35.45;100039.47;5075306;28;20205;-77
2022/08/09 06:04:59;;;;;;;;;;;;;;;33.75;36.60;100046.16;5075273;28;19917;-76
2022/08/09 06:07:25;;;;;;;;;;;;;;;34.53;35.32;100041.47;5075496;28;19966;-76
2022/08/09 06:09:51;;;;;;;;;;;;;;;34.72;34.15;100039.50;5075151;28;19920;-76
2022/08/09 06:12:16;;;;;;;;;;;;;;;34.85;34.18;100036.03;5075401;28;19917;-77
2022/08/09 06:14:41;;;;;;;;;;;;;;;35.09;34.05;100044.00;5075523;28;19921;-75
2022/08/09 06:17:06;;;;;;;;;;;;;;;34.92;34.15;100044.88;5075492;28;19924;-76
2022/08/09 06:19:35;;;;;;;;;;;;;;;34.98;33.85;100038.31;5075723;28;19916;-75
2022/08/09 06:22:00;;;;;;;;;;;;;;;34.62;34.72;100041.13;5075237;28;19927;-75
2022/08/09 06:24:26;;;;;;;;;;;;;;;34.97;34.31;100042.53;5075572;28;20003;-77
2022/08/09 06:26:51;;;;;;;;;;;;;;;34.74;34.72;100051.31;5075092;28;19974;-75
2022/08/09 06:29:19;;;;;;;;;;;;;;;34.76;35.53;100045.78;5075451;28;19921;-77
2022/08/09 06:31:45;;;;;;;;;;;;;;;35.65;33.54;100049.34;5075760;28;19917;-76
2022/08/09 06:34:13;;;;;;;;;;;;;;;35.81;33.23;100047.59;5075433;28;19923;-76
2022/08/09 06:36:41;;;;;;;;;;;;;;;35.72;33.88;100053.72;5076174;28;19916;-75
2022/08/09 06:39:11;;;;;;;;;;;;;;;35.94;31.80;100054.28;5075798;28;19916;-75
2022/08/09 06:41:39;;;;;;;;;;;;;;;35.41;33.54;100053.72;5074296;28;19916;-77
2022/08/09 06:44:05;;;;;;;;;;;;;;;36.07;32.48;100061.53;5074787;28;20231;-76
2022/08/09 06:46:30;;;;;;;;;;;;;;;36.14;32.61;100063.81;5074290;28;19916;-76
2022/08/09 06:48:56;;;;;;;;;;;;;;;36.37;31.56;100056.41;5075462;28;20378;-76
2022/08/09 06:51:21;;;;;;;;;;;;;;;36.54;30.62;100056.22;5074528;28;20362;-76
2022/08/09 06:53:46;;;;;;;;;;;;;;;36.15;31.11;100062.47;5075758;28;19916;-77
2022/08/09 06:56:12;;;;;;;;;;;;;;;36.51;31.26;100054.41;5074376;28;19916;-75
2022/08/09 06:58:40;;;;;;;;;;;;;;;36.76;30.75;100055.13;5076257;28;19921;-77
2022/08/09 07:01:05;;;;;;;;;;;;;;;36.57;30.89;100057.25;5074860;28;19916;-77
2022/08/09 07:03:33;;;;;;;;;;;;;;;35.89;31.73;100060.91;5075585;28;19939;-76
2022/08/09 07:06:02;;;;;;;;;;;;;;;35.59;31.66;100054.41;5074321;28;19960;-77
2022/08/09 07:08:31;;;;;;;;;;;;;;;36.37;30.68;100062.19;5075454;28;19939;-75
2022/08/09 07:10:56;;;;;;;;;;;;;;;36.26;30.60;100061.56;5074742;28;19920;-77
2022/08/09 07:13:21;;;;;;;;;;;;;;;36.34;30.47;100054.63;5074084;28;19924;-77
2022/08/09 07:15:47;;;;;;;;;;;;;;;36.31;30.57;100063.59;5074153;28;20004;-77
2022/08/09 07:18:14;;;;;;;;;;;;;;;35.92;31.04;100056.94;5074461;28;19924;-76
2022/08/09 07:20:42;;;;;;;;;;;;;;;35.64;31.30;100059.34;5075420;28;20015;-76
2022/08/09 07:23:08;;;;;;;;;;;;;;;35.40;32.47;100063.72;5074318;28;20020;-76
2022/08/09 07:25:33;;;;;;;;;;;;;;;36.51;30.24;100062.34;5073702;28;20354;-74
2022/08/09 07:27:59;;;;;;;;;;;;;;;36.28;30.48;100067.63;5074072;28;19920;-77
2022/08/09 07:30:24;;;;;;;;;;;;;;;35.84;31.54;100060.97;5073663;28;20363;-77
2022/08/09 07:32:49;;;;;;;;;;;;;;;35.46;31.90;100055.03;5074660;28;19916;-76
2022/08/09 07:35:17;;;;;;;;;;;;;;;35.50;32.12;100054.75;5073700;28;20283;-76
2022/08/09 07:37:43;;;;;;;;;;;;;;;35.89;31.33;100063.78;5073574;28;19960;-75
2022/08/09 07:40:09;;;;;;;;;;;;;;;35.98;31.03;100061.91;5075126;28;19962;-76
2022/08/09 07:42:48;;;;;;;;;;;;;;;35.82;31.58;100069.41;5073885;28;20027;-77
2022/08/09 07:45:14;;;;;;;;;;;;;;;36.15;31.43;100068.28;5057816;28;19925;-75
2022/08/09 07:47:39;;;;;;;;;;;;;;;35.43;32.24;100062.66;5073377;28;20432;-75
2022/08/09 07:50:05;;;;;;;;;;;;;;;35.02;32.60;100073.50;5073309;28;19916;-76
2022/08/09 07:52:33;;;;;;;;;;;;;;;34.57;32.85;100071.66;5075121;28;19939;-77
2022/08/09 07:54:59;;;;;;;;;;;;;;;34.76;31.35;100074.69;5074238;28;19916;-77
2022/08/09 07:57:24;;;;;;;;;;;;;;;35.54;30.90;100067.59;5073597;28;20269;-76
2022/08/09 07:59:49;;;;;;;;;;;;;;;35.46;31.24;100083.16;5073187;28;20347;-75
2022/08/09 08:02:15;;;;;;;;;;;;;;;35.31;30.94;100084.31;5073057;28;19916;-75
2022/08/09 08:04:40;;;;;;;;;;;;;;;35.17;31.20;100068.13;5073518;28;19966;-74
2022/08/09 08:07:05;;;;;;;;;;;;;;;35.13;31.41;100073.41;5073027;28;20323;-75
2022/08/09 08:09:33;;;;;;;;;;;;;;;35.35;30.76;100067.44;5073157;28;19969;-75
2022/08/09 08:12:01;;;;;;;;;;;;;;;34.42;33.06;100067.50;5072918;28;19917;-75
2022/08/09 08:14:27;;;;;;;;;;;;;;;35.00;32.07;100064.59;5073380;28;19960;-75
2022/08/09 08:16:52;;;;;;;;;;;;;;;34.59;33.01;100074.00;5074215;28;20349;-74
2022/08/09 08:19:18;;;;;;;;;;;;;;;34.72;32.67;100073.41;5073347;28;19917;-75
2022/08/09 08:21:43;;;;;;;;;;;;;;;34.14;33.79;100074.97;5072998;28;20022;-75
2022/08/09 08:24:08;;;;;;;;;;;;;;;33.97;33.56;100076.31;5072813;28;19939;-77
2022/08/09 08:26:34;;;;;;;;;;;;;;;35.19;32.41;100074.16;5072616;28;19917;-76
2022/08/09 08:28:59;;;;;;;;;;;;;;;35.34;31.90;100070.88;5072910;28;19924;-74
2022/08/09 08:31:27;;;;;;;;;;;;;;;34.16;33.97;100080.19;5074045;28;19999;-76
2022/08/09 08:33:52;;;;;;;;;;;;;;;34.03;33.85;100082.84;5072960;28;20370;-76
2022/08/09 08:36:17;;;;;;;;;;;;;;;34.36;32.84;100076.97;5073602;28;19916;-75
2022/08/09 08:38:45;;;;;;;;;;;;;;;34.73;33.29;100081.53;5072780;28;19927;-75
2022/08/09 08:41:13;;;;;;;;;;;;;;;36.00;31.60;100085.28;5074109;28;19920;-75
2022/08/09 08:43:41;;;;;;;;;;;;;;;36.75;30.02;100076.72;5072752;28;20347;-77
2022/08/09 08:46:08;;;;;;;;;;;;;;;36.56;30.07;100084.66;5074535;28;19916;-76
2022/08/09 08:48:33;;;;;;;;;;;;;;;36.83;29.65;100083.47;5072708;28;19927;-77
2022/08/09 08:51:03;;;;;;;;;;;;;;;36.16;30.71;100076.41;5072801;28;19956;-77
2022/08/09 08:53:28;;;;;;;;;;;;;;;37.00;29.02;100076.66;5072498;28;19974;-76
2022/08/09 08:55:54;;;;;;;;;;;;;;;35.26;29.74;100082.25;5072369;28;19921;-76
2022/08/09 08:58:21;;;;;;;;;;;;;;;35.69;30.01;100076.66;5072625;28;19916;-77
2022/08/09 09:00:50;;;;;;;;;;;;;;;36.11;29.97;100082.25;5073970;28;20367;-78
2022/08/09 09:03:18;;;;;;;;;;;;;;;37.09;29.07;100071.25;5072724;28;19966;-76
2022/08/09 09:05:45;;;;;;;;;;;;;;;36.87;28.87;100086.84;5072764;28;19963;-77
2022/08/09 09:08:13;;;;;;;;;;;;;;;36.29;28.71;100081.53;5073314;28;20015;-75
2022/08/09 09:10:41;;;;;;;;;;;;;;;36.60;28.75;100079.34;5075839;28;19943;-75
2022/08/09 09:13:06;;;;;;;;;;;;;;;36.40;29.48;100078.50;5076564;28;19939;-75
2022/08/09 09:15:32;;;;;;;;;;;;;;;36.21;29.23;100080.56;5078052;28;20359;-76
2022/08/09 09:18:01;;;;;;;;;;;;;;;37.52;27.70;100078.22;5077547;28;19965;-75
2022/08/09 09:20:33;;;;;;;;;;;;;;;37.95;27.52;100077.97;5076175;28;20003;-78
2022/08/09 09:22:59;;;;;;;;;;;;;;;37.84;27.68;100078.97;5075950;28;19917;-75
2022/08/09 09:25:35;;;;;;;;;;;;;;;36.63;28.65;100072.44;5076042;28;19923;-77
2022/08/09 09:28:01;;;;;;;;;;;;;;;37.01;28.67;100067.41;5075801;28;19963;-77
2022/08/09 09:30:27;;;;;;;;;;;;;;;36.66;29.04;100065.56;5077410;28;19917;-77
2022/08/09 09:33:06;;;;;;;;;;;;;;;35.36;31.25;100074.78;5077646;28;19916;-75
2022/08/09 09:35:31;;;;;;;;;;;;;;;36.28;29.54;100068.41;5075902;28;19916;-77
2022/08/09 09:37:58;;;;;;;;;;;;;;;36.51;29.48;100071.81;5076321;28;20007;-76
2022/08/09 09:40:40;;;;;;;;;;;;;;;36.78;28.89;100061.16;5075500;28;19920;-75
2022/08/09 09:43:08;;;;;;;;;;;;;;;37.35;28.35;100073.47;5075671;28;19916;-75
2022/08/09 09:45:47;;;;;;;;;;;;;;;37.44;28.17;100067.25;5076120;28;19921;-75
2022/08/09 09:48:13;;;;;;;;;;;;;;;37.98;27.48;100068.13;5075867;28;20355;-76
2022/08/09 09:50:40;;;;;;;;;;;;;;;38.11;27.01;100064.47;5075546;28;19916;-77
2022/08/09 09:53:05;;;;;;;;;;;;;;;37.88;27.06;100067.03;5076125;28;20264;-76
2022/08/09 09:55:48;;;;;;;;;;;;;;;36.81;28.38;100071.66;5076497;28;19917;-77
2022/08/09 09:58:14;;;;;;;;;;;;;;;37.21;28.39;100060.25;5075207;28;19920;-77
2022/08/09 10:00:42;;;;;;;;;;;;;;;36.72;28.24;100061.22;5075405;28;19940;-75
2022/08/09 10:03:07;;;;;;;;;;;;;;;36.04;29.78;100068.41;5075259;28;19917;-76
2022/08/09 10:05:33;;;;;;;;;;;;;;;35.29;30.39;100058.03;5075321;28;19943;-76
2022/08/09 10:08:02;;;;;;;;;;;;;;;35.22;31.00;100058.63;5075798;28;20003;-77
2022/08/09 10:10:29;;;;;;;;;;;;;;;34.77;31.21;100061.00;5075045;28;19943;-75
2022/08/09 10:12:54;;;;;;;;;;;;;;;35.63;30.12;100051.97;5075138;28;20386;-76
2022/08/09 10:15:20;;;;;;;;;;;;;;;36.50;28.45;100057.88;5075375;28;19916;-77
2022/08/09 10:17:49;;;;;;;;;;;;;;;36.36;28.52;100054.84;5075151;28;19916;-77
2022/08/09 10:20:20;;;;;;;;;;;;;;;35.06;31.01;100043.00;5076474;28;19917;-75
2022/08/09 10:22:47;;;;;;;;;;;;;;;35.65;30.26;100043.53;5075596;28;20022;-75
2022/08/09 10:25:13;;;;;;;;;;;;;;;35.91;29.56;100037.22;5075845;28;19970;-76
2022/08/09 10:27:39;;;;;;;;;;;;;;;36.29;28.97;100043.88;5058581;28;20310;-76
2022/08/09 10:30:07;;;;;;;;;;;;;;;36.14;28.84;100038.53;5075574;28;19934;-76
2022/08/09 10:32:33;;;;;;;;;;;;;;;36.29;28.78;100026.50;5074804;28;19921;-76
2022/08/09 10:35:01;;;;;;;;;;;;;;;36.39;28.64;100024.78;5076255;28;19962;-76
2022/08/09 10:37:27;;;;;;;;;;;;;;;36.05;28.99;100029.44;5074690;28;19963;-76
2022/08/09 10:39:52;;;;;;;;;;;;;;;36.33;28.19;100026.19;5075291;28;19955;-76
2022/08/09 10:42:18;;;;;;;;;;;;;;;36.38;28.54;100022.44;5075043;28;19974;-77
2022/08/09 10:44:46;;;;;;;;;;;;;;;36.36;29.30;100019.31;5074564;28;19920;-77
2022/08/09 10:47:22;;;;;;;;;;;;;;;36.04;30.07;100016.28;5074855;28;20321;-76
2022/08/09 10:50:10;;;;;;;;;;;;;;;36.28;29.86;100007.56;5074625;28;19916;-77
2022/08/09 10:52:54;;;;;;;;;;;;;;;36.80;29.15;100015.00;5074223;28;19916;-77
2022/08/09 10:55:19;;;;;;;;;;;;;;;37.02;28.75;100013.88;5074487;28;19970;-76
2022/08/09 10:57:45;;;;;;;;;;;;;;;36.94;28.53;100005.06;5075770;28;19917;-77
2022/08/09 11:00:30;;;;;;;;;;;;;;;37.42;28.71;100003.19;5074378;28;19994;-77
2022/08/09 11:02:56;;;;;;;;;;;;;;;37.65;28.46;100005.69;5073932;28;19927;-77
2022/08/09 11:05:22;;;;;;;;;;;;;;;37.25;29.03;100002.69;5074225;28;20232;-75
2022/08/09 11:07:48;;;;;;;;;;;;;;;37.96;28.13;100001.91;5057742;28;19920;-76
2022/08/09 11:10:13;;;;;;;;;;;;;;;37.65;28.10;100003.56;5075603;28;19932;-76
2022/08/09 11:12:39;;;;;;;;;;;;;;;37.29;28.20;99994.47;5074530;28;19916;-78
2022/08/09 11:15:24;;;;;;;;;;;;;;;36.89;28.51;99990.66;5074755;28;19916;-75
2022/08/09 11:17:51;;;;;;;;;;;;;;;37.16;28.82;99983.59;5075188;28;20375;-74
2022/08/09 11:20:19;;;;;;;;;;;;;;;37.62;27.97;99981.47;5074313;28;19916;-76
2022/08/09 11:22:44;;;;;;;;;;;;;;;37.14;28.41;99974.69;5073876;28;19921;-75
2022/08/09 11:25:10;;;;;;;;;;;;;;;37.18;28.49;99971.44;5073999;28;19922;-76
2022/08/09 11:27:41;;;;;;;;;;;;;;;37.85;27.52;99981.81;5073869;28;20007;-76
2022/08/09 11:30:07;;;;;;;;;;;;;;;38.14;26.97;99961.69;5074969;28;19916;-75
2022/08/09 11:32:42;;;;;;;;;;;;;;;38.36;27.05;99960.44;5073784;28;19916;-76
2022/08/09 11:35:10;;;;;;;;;;;;;;;38.49;26.63;99957.47;5073655;28;19917;-76
2022/08/09 11:37:38;;;;;;;;;;;;;;;38.35;26.81;99950.91;5073481;28;19916;-77
2022/08/09 11:40:05;;;;;;;;;;;;;;;38.11;26.36;99945.38;5073557;28;20395;-75
2022/08/09 11:42:40;;;;;;;;;;;;;;;38.27;26.68;99942.09;5074714;28;19952;-76
2022/08/09 11:45:20;;;;;;;;;;;;;;;38.17;26.19;99943.91;5075421;28;20003;-77
2022/08/09 11:47:50;;;;;;;;;;;;;;;37.68;27.33;99937.81;5073984;28;19967;-77
2022/08/09 11:50:18;;;;;;;;;;;;;;;37.98;27.14;99938.28;5074783;28;19928;-74
2022/08/09 11:52:59;;;;;;;;;;;;;;;38.12;27.24;99924.50;5073290;28;20373;-77
2022/08/09 11:55:37;;;;;;;;;;;;;;;37.80;27.47;99921.72;5075186;28;19920;-78
2022/08/09 11:58:12;;;;;;;;;;;;;;;37.15;28.71;99926.16;5073551;28;19970;-77
2022/08/09 12:00:46;;;;;;;;;;;;;;;37.16;28.63;99921.91;5074545;28;20011;-76
2022/08/09 12:03:14;;;;;;;;;;;;;;;37.02;28.64;99909.50;5073401;28;19922;-75
2022/08/09 12:05:39;;;;;;;;;;;;;;;37.32;28.04;99917.13;5073813;28;19962;-75
2022/08/09 12:08:06;;;;;;;;;;;;;;;38.09;27.37;99919.00;5073568;28;20271;-76
2022/08/09 12:10:32;;;;;;;;;;;;;;;38.12;26.66;99915.00;5072800;28;20430;-77
2022/08/09 12:12:59;;;;;;;;;;;;;;;37.46;27.81;99910.81;5072985;28;20014;-75
2022/08/09 12:15:25;;;;;;;;;;;;;;;37.77;27.56;99914.16;5073916;28;20215;-75
2022/08/09 12:17:52;;;;;;;;;;;;;;;38.27;27.07;99906.47;5073635;28;19924;-76
2022/08/09 12:20:22;;;;;;;;;;;;;;;38.18;27.24;99904.03;5074317;28;20062;-74
2022/08/09 12:22:53;;;;;;;;;;;;;;;37.67;28.10;99913.03;5072810;28;19923;-76
2022/08/09 12:25:18;;;;;;;;;;;;;;;37.15;28.79;99905.84;5073535;28;20408;-77
2022/08/09 12:27:44;;;;;;;;;;;;;;;37.30;28.43;99908.22;5074217;28;19960;-77
2022/08/09 12:30:12;;;;;;;;;;;;;;;37.43;28.31;99911.91;5073296;28;19923;-76
2022/08/09 12:32:38;;;;;;;;;;;;;;;36.80;29.33;99899.06;5073026;28;19920;-76
2022/08/09 12:35:06;;;;;;;;;;;;;;;37.39;28.59;99899.84;5072711;28;20331;-76
2022/08/09 12:37:35;;;;;;;;;;;;;;;37.30;28.56;99897.38;5072774;28;19916;-76
2022/08/09 12:40:03;;;;;;;;;;;;;;;37.20;29.26;99896.28;5072638;28;20019;-74
2022/08/09 12:42:28;;;;;;;;;;;;;;;37.86;28.04;99896.28;5071757;28;19916;-75
2022/08/09 12:44:54;;;;;;;;;;;;;;;38.11;27.21;99890.19;5073763;28;19966;-76
2022/08/09 12:47:20;;;;;;;;;;;;;;;38.17;27.73;99885.03;5072589;28;19917;-76